createdAt,value
2018-04-09T00:00:36.328Z,961.92
2018-04-09T00:01:36.327Z,961.93
2018-04-09T00:02:36.317Z,961.92
2018-04-09T00:03:36.313Z,961.97
2018-04-09T00:04:36.304Z,962.00
2018-04-09T00:05:36.297Z,962.03
2018-04-09T00:06:36.296Z,962.04
2018-04-09T00:07:36.290Z,962.04
2018-04-09T00:08:36.284Z,962.06
2018-04-09T00:09:36.279Z,962.02
2018-04-09T00:10:36.265Z,962.02
2018-04-09T00:11:36.257Z,962.01
2018-04-09T00:12:36.253Z,962.03
2018-04-09T00:13:36.244Z,962.02
2018-04-09T00:14:36.239Z,961.99
2018-04-09T00:15:36.231Z,961.96
2018-04-09T00:16:36.233Z,961.96
2018-04-09T00:17:36.219Z,962.00
2018-04-09T00:18:36.218Z,962.00
2018-04-09T00:19:36.206Z,962.02
2018-04-09T00:20:36.205Z,962.02
2018-04-09T00:21:36.198Z,962.01
2018-04-09T00:22:36.187Z,962.00
2018-04-09T00:23:36.181Z,961.97
2018-04-09T00:24:36.173Z,961.89
2018-04-09T00:25:36.175Z,961.90
2018-04-09T00:26:36.166Z,961.92
2018-04-09T00:27:36.154Z,961.92
2018-04-09T00:28:36.151Z,961.93
2018-04-09T00:29:36.140Z,961.93
2018-04-09T00:30:36.136Z,961.92
2018-04-09T00:31:36.127Z,961.92
2018-04-09T00:32:36.123Z,961.90
2018-04-09T00:33:36.114Z,961.91
2018-04-09T00:34:36.119Z,961.91
2018-04-09T00:35:36.102Z,961.90
2018-04-09T00:36:36.107Z,961.89
2018-04-09T00:37:36.088Z,961.87
2018-04-09T00:38:36.088Z,961.87
2018-04-09T00:39:36.076Z,961.87
2018-04-09T00:40:36.075Z,961.84
2018-04-09T00:41:36.069Z,961.88
2018-04-09T00:42:36.063Z,961.85
2018-04-09T00:43:36.050Z,961.88
2018-04-09T00:44:36.047Z,961.85
2018-04-09T00:45:36.038Z,961.79
2018-04-09T00:46:36.030Z,961.72
2018-04-09T00:47:36.025Z,961.75
2018-04-09T00:48:36.022Z,961.73
2018-04-09T00:49:36.010Z,961.75
2018-04-09T00:50:36.013Z,961.79
2018-04-09T00:51:36.003Z,961.80
2018-04-09T00:52:35.992Z,961.79
2018-04-09T00:53:35.990Z,961.75
2018-04-09T00:54:35.980Z,961.66
2018-04-09T00:55:35.971Z,961.56
2018-04-09T00:56:35.971Z,961.51
2018-04-09T00:57:35.957Z,961.48
2018-04-09T00:58:35.956Z,961.52
2018-04-09T00:59:35.952Z,961.56
2018-04-09T01:00:35.939Z,961.58
2018-04-09T01:01:35.942Z,961.58
2018-04-09T01:02:35.927Z,961.56
2018-04-09T01:03:35.919Z,961.58
2018-04-09T01:04:35.917Z,961.56
2018-04-09T01:05:35.906Z,961.56
2018-04-09T01:06:35.907Z,961.57
2018-04-09T01:07:35.894Z,961.52
2018-04-09T01:08:35.894Z,961.51
2018-04-09T01:09:35.881Z,961.53
2018-04-09T01:10:35.874Z,961.50
2018-04-09T01:11:35.867Z,961.56
2018-04-09T01:12:35.861Z,961.55
2018-04-09T01:13:35.858Z,961.50
2018-04-09T01:14:35.852Z,961.42
2018-04-09T01:15:35.846Z,961.45
2018-04-09T01:16:35.843Z,961.51
2018-04-09T01:17:35.826Z,961.50
2018-04-09T01:18:35.825Z,961.51
2018-04-09T01:19:35.816Z,961.49
2018-04-09T01:20:35.809Z,961.38
2018-04-09T01:21:35.806Z,961.34
2018-04-09T01:22:35.799Z,961.28
2018-04-09T01:23:35.788Z,961.34
2018-04-09T01:24:35.782Z,961.42
2018-04-09T01:25:35.773Z,961.42
2018-04-09T01:26:35.762Z,961.43
2018-04-09T01:27:35.765Z,961.40
2018-04-09T01:28:35.746Z,961.39
2018-04-09T01:29:35.738Z,961.32
2018-04-09T01:30:35.737Z,961.26
2018-04-09T01:31:35.721Z,961.21
2018-04-09T01:32:35.715Z,961.18
2018-04-09T01:33:35.702Z,961.21
2018-04-09T01:34:35.696Z,961.23
2018-04-09T01:35:35.692Z,961.21
2018-04-09T01:36:35.685Z,961.19
2018-04-09T01:37:35.668Z,961.25
2018-04-09T01:38:35.667Z,961.23
2018-04-09T01:39:35.658Z,961.26
2018-04-09T01:40:35.644Z,961.29
2018-04-09T01:41:35.635Z,961.27
2018-04-09T01:42:35.625Z,961.27
2018-04-09T01:43:35.617Z,961.23
2018-04-09T01:44:35.614Z,961.25
2018-04-09T01:45:35.847Z,961.27
2018-04-09T01:46:35.586Z,961.23
2018-04-09T01:47:35.579Z,961.23
2018-04-09T01:48:35.579Z,961.21
2018-04-09T01:49:35.567Z,961.24
2018-04-09T01:50:35.552Z,961.23
2018-04-09T01:51:35.544Z,961.20
2018-04-09T01:52:35.543Z,961.23
2018-04-09T01:53:35.529Z,961.22
2018-04-09T01:54:35.516Z,961.17
2018-04-09T01:55:35.506Z,961.13
2018-04-09T01:56:35.501Z,961.14
2018-04-09T01:57:35.487Z,961.16
2018-04-09T01:58:35.485Z,961.13
2018-04-09T01:59:35.475Z,961.15
2018-04-09T02:00:35.462Z,961.22
2018-04-09T02:01:35.453Z,961.20
2018-04-09T02:02:35.441Z,961.20
2018-04-09T02:03:35.433Z,961.19
2018-04-09T02:04:35.430Z,961.15
2018-04-09T02:05:35.413Z,961.14
2018-04-09T02:06:35.405Z,961.10
2018-04-09T02:07:35.395Z,961.14
2018-04-09T02:08:35.390Z,961.13
2018-04-09T02:09:35.384Z,961.15
2018-04-09T02:10:35.375Z,961.16
2018-04-09T02:11:35.359Z,961.12
2018-04-09T02:12:35.351Z,961.11
2018-04-09T02:13:35.341Z,961.05
2018-04-09T02:14:35.333Z,961.06
2018-04-09T02:15:35.322Z,961.13
2018-04-09T02:16:35.317Z,961.17
2018-04-09T02:17:35.302Z,961.15
2018-04-09T02:18:35.301Z,961.14
2018-04-09T02:19:35.284Z,961.12
2018-04-09T02:20:35.283Z,961.13
2018-04-09T02:21:35.265Z,961.10
2018-04-09T02:22:35.265Z,961.09
2018-04-09T02:23:35.247Z,961.05
2018-04-09T02:24:35.238Z,961.05
2018-04-09T02:25:35.228Z,961.00
2018-04-09T02:26:35.219Z,961.01
2018-04-09T02:27:35.209Z,960.98
2018-04-09T02:28:35.206Z,960.97
2018-04-09T02:29:35.197Z,960.97
2018-04-09T02:30:35.190Z,960.96
2018-04-09T02:31:35.174Z,960.95
2018-04-09T02:32:35.173Z,960.94
2018-04-09T02:33:35.160Z,960.97
2018-04-09T02:34:35.144Z,961.00
2018-04-09T02:35:35.137Z,960.96
2018-04-09T02:36:35.141Z,960.98
2018-04-09T02:37:35.116Z,960.98
2018-04-09T02:38:35.108Z,960.97
2018-04-09T02:39:35.106Z,960.98
2018-04-09T02:40:35.089Z,961.02
2018-04-09T02:41:35.082Z,961.00
2018-04-09T02:42:35.069Z,960.97
2018-04-09T02:43:35.060Z,960.99
2018-04-09T02:44:35.054Z,960.91
2018-04-09T02:45:35.041Z,960.97
2018-04-09T02:46:35.032Z,960.90
2018-04-09T02:47:35.023Z,960.92
2018-04-09T02:48:35.014Z,960.94
2018-04-09T02:49:35.003Z,960.92
2018-04-09T02:50:34.994Z,960.98
2018-04-09T02:51:34.984Z,960.94
2018-04-09T02:52:34.973Z,960.94
2018-04-09T02:53:34.963Z,960.93
2018-04-09T02:54:34.954Z,960.92
2018-04-09T02:55:34.949Z,960.90
2018-04-09T02:56:34.948Z,960.94
2018-04-09T02:57:34.928Z,960.96
2018-04-09T02:58:34.924Z,960.96
2018-04-09T02:59:34.908Z,960.98
2018-04-09T03:00:34.899Z,960.99
2018-04-09T03:01:34.890Z,960.97
2018-04-09T03:02:34.885Z,960.97
2018-04-09T03:03:34.876Z,960.97
2018-04-09T03:04:34.860Z,961.00
2018-04-09T03:05:34.856Z,961.02
2018-04-09T03:06:34.848Z,961.04
2018-04-09T03:07:34.831Z,961.00
2018-04-09T03:08:34.834Z,961.03
2018-04-09T03:09:34.819Z,960.98
2018-04-09T03:10:34.802Z,961.01
2018-04-09T03:11:34.798Z,961.02
2018-04-09T03:12:34.784Z,960.96
2018-04-09T03:13:34.779Z,960.96
2018-04-09T03:14:34.764Z,960.92
2018-04-09T03:15:34.761Z,960.94
2018-04-09T03:16:34.746Z,960.95
2018-04-09T03:17:34.735Z,960.91
2018-04-09T03:18:34.729Z,960.92
2018-04-09T03:19:34.717Z,960.91
2018-04-09T03:20:34.708Z,960.90
2018-04-09T03:21:34.700Z,960.90
2018-04-09T03:22:34.693Z,960.91
2018-04-09T03:23:34.679Z,960.91
2018-04-09T03:24:34.670Z,960.96
2018-04-09T03:25:34.667Z,960.96
2018-04-09T03:26:34.656Z,961.00
2018-04-09T03:27:34.649Z,961.02
2018-04-09T03:28:34.632Z,961.02
2018-04-09T03:29:34.621Z,961.00
2018-04-09T03:30:34.615Z,960.99
2018-04-09T03:31:34.606Z,960.92
2018-04-09T03:32:34.601Z,960.92
2018-04-09T03:33:34.583Z,960.93
2018-04-09T03:34:34.578Z,960.90
2018-04-09T03:35:34.571Z,960.90
2018-04-09T03:36:34.556Z,960.89
2018-04-09T03:37:34.544Z,960.88
2018-04-09T03:38:34.535Z,960.87
2018-04-09T03:39:34.531Z,960.90
2018-04-09T03:40:34.515Z,960.93
2018-04-09T03:41:34.505Z,960.98
2018-04-09T03:42:34.499Z,961.00
2018-04-09T03:43:34.493Z,960.98
2018-04-09T03:44:34.478Z,960.97
2018-04-09T03:45:34.468Z,960.99
2018-04-09T03:46:34.462Z,960.94
2018-04-09T03:47:34.448Z,960.90
2018-04-09T03:48:34.444Z,960.89
2018-04-09T03:49:34.432Z,960.85
2018-04-09T03:50:34.420Z,960.81
2018-04-09T03:51:34.417Z,960.78
2018-04-09T03:52:34.411Z,960.75
2018-04-09T03:53:34.390Z,960.73
2018-04-09T03:54:34.380Z,960.69
2018-04-09T03:55:34.372Z,960.70
2018-04-09T03:56:34.362Z,960.70
2018-04-09T03:57:34.353Z,960.76
2018-04-09T03:58:34.342Z,960.81
2018-04-09T03:59:34.332Z,960.84
2018-04-09T04:00:34.324Z,960.82
2018-04-09T04:01:34.314Z,960.76
2018-04-09T04:02:34.304Z,960.76
2018-04-09T04:03:34.301Z,960.76
2018-04-09T04:04:34.290Z,960.74
2018-04-09T04:05:34.281Z,960.71
2018-04-09T04:06:34.266Z,960.70
2018-04-09T04:07:34.257Z,960.74
2018-04-09T04:08:34.246Z,960.76
2018-04-09T04:09:34.236Z,960.80
2018-04-09T04:10:34.225Z,960.76
2018-04-09T04:11:34.219Z,960.76
2018-04-09T04:12:34.209Z,960.76
2018-04-09T04:13:34.197Z,960.71
2018-04-09T04:14:34.186Z,960.67
2018-04-09T04:15:34.178Z,960.71
2018-04-09T04:16:34.172Z,960.74
2018-04-09T04:17:34.165Z,960.80
2018-04-09T04:18:34.149Z,960.77
2018-04-09T04:19:34.146Z,960.78
2018-04-09T04:20:34.131Z,960.75
2018-04-09T04:21:34.120Z,960.72
2018-04-09T04:22:34.112Z,960.66
2018-04-09T04:23:34.100Z,960.76
2018-04-09T04:24:34.101Z,960.81
2018-04-09T04:25:34.088Z,960.83
2018-04-09T04:26:34.080Z,960.85
2018-04-09T04:27:34.062Z,960.82
2018-04-09T04:28:34.053Z,960.79
2018-04-09T04:29:34.043Z,960.84
2018-04-09T04:30:34.034Z,960.80
2018-04-09T04:31:34.031Z,960.82
2018-04-09T04:32:34.015Z,960.85
2018-04-09T04:33:34.008Z,960.83
2018-04-09T04:34:34.000Z,960.76
2018-04-09T04:35:33.985Z,960.80
2018-04-09T04:36:33.983Z,960.84
2018-04-09T04:37:33.967Z,960.84
2018-04-09T04:38:33.956Z,960.84
2018-04-09T04:39:33.946Z,960.85
2018-04-09T04:40:33.939Z,960.88
2018-04-09T04:41:33.935Z,960.88
2018-04-09T04:42:33.921Z,960.90
2018-04-09T04:43:33.914Z,960.84
2018-04-09T04:44:33.906Z,960.85
2018-04-09T04:45:33.889Z,960.88
2018-04-09T04:46:33.880Z,960.92
2018-04-09T04:47:33.876Z,961.00
2018-04-09T04:48:33.860Z,960.93
2018-04-09T04:49:33.862Z,960.96
2018-04-09T04:50:33.842Z,960.94
2018-04-09T04:51:33.833Z,960.95
2018-04-09T04:52:33.824Z,960.91
2018-04-09T04:53:33.810Z,960.91
2018-04-09T04:54:33.807Z,960.91
2018-04-09T04:55:33.794Z,960.91
2018-04-09T04:56:33.784Z,960.95
2018-04-09T04:57:33.778Z,960.92
2018-04-09T04:58:33.763Z,960.96
2018-04-09T04:59:33.753Z,960.99
2018-04-09T05:00:33.745Z,960.95
2018-04-09T05:01:33.738Z,960.92
2018-04-09T05:02:33.722Z,960.92
2018-04-09T05:03:33.711Z,960.96
2018-04-09T05:04:33.715Z,961.01
2018-04-09T05:05:33.690Z,960.99
2018-04-09T05:06:33.682Z,961.02
2018-04-09T05:07:33.671Z,961.02
2018-04-09T05:08:33.666Z,961.03
2018-04-09T05:09:33.653Z,961.00
2018-04-09T05:10:33.644Z,961.01
2018-04-09T05:11:33.641Z,961.02
2018-04-09T05:12:33.625Z,961.02
2018-04-09T05:13:33.619Z,961.04
2018-04-09T05:14:33.604Z,961.03
2018-04-09T05:15:33.593Z,961.09
2018-04-09T05:16:33.583Z,961.07
2018-04-09T05:17:33.575Z,961.01
2018-04-09T05:18:33.566Z,960.98
2018-04-09T05:19:33.557Z,960.95
2018-04-09T05:20:33.543Z,960.97
2018-04-09T05:21:33.534Z,960.98
2018-04-09T05:22:33.527Z,960.97
2018-04-09T05:23:33.514Z,960.98
2018-04-09T05:24:33.511Z,961.01
2018-04-09T05:25:33.497Z,960.97
2018-04-09T05:26:33.486Z,960.97
2018-04-09T05:27:33.478Z,960.95
2018-04-09T05:28:33.465Z,960.96
2018-04-09T05:29:33.454Z,960.97
2018-04-09T05:30:33.445Z,960.96
2018-04-09T05:31:33.442Z,960.94
2018-04-09T05:32:33.433Z,960.93
2018-04-09T05:33:33.416Z,960.90
2018-04-09T05:34:33.409Z,960.96
2018-04-09T05:35:33.410Z,960.97
2018-04-09T05:36:33.388Z,960.99
2018-04-09T05:37:33.382Z,960.98
2018-04-09T05:38:33.373Z,961.00
2018-04-09T05:39:33.361Z,961.00
2018-04-09T05:40:33.356Z,961.03
2018-04-09T05:41:33.350Z,961.00
2018-04-09T05:42:33.337Z,961.02
2018-04-09T05:43:33.322Z,961.02
2018-04-09T05:44:33.311Z,961.07
2018-04-09T05:45:33.301Z,961.07
2018-04-09T05:46:33.292Z,961.05
2018-04-09T05:47:33.280Z,961.08
2018-04-09T05:48:33.270Z,961.04
2018-04-09T05:49:33.269Z,961.03
2018-04-09T05:50:33.254Z,961.00
2018-04-09T05:51:33.254Z,960.99
2018-04-09T05:52:33.234Z,960.99
2018-04-09T05:53:33.227Z,960.98
2018-04-09T05:54:33.214Z,960.98
2018-04-09T05:55:33.203Z,961.02
2018-04-09T05:56:33.201Z,961.02
2018-04-09T05:57:33.187Z,961.05
2018-04-09T05:58:33.175Z,961.04
2018-04-09T05:59:33.165Z,961.03
2018-04-09T06:00:33.156Z,961.01
2018-04-09T06:01:33.152Z,960.94
2018-04-09T06:02:33.138Z,960.92
2018-04-09T06:03:33.127Z,960.90
2018-04-09T06:04:33.117Z,960.84
2018-04-09T06:05:33.148Z,960.84
2018-04-09T06:06:33.105Z,960.85
2018-04-09T06:07:33.094Z,960.85
2018-04-09T06:08:33.079Z,960.92
2018-04-09T06:09:33.068Z,960.87
2018-04-09T06:10:33.065Z,960.92
2018-04-09T06:11:33.051Z,960.93
2018-04-09T06:12:33.042Z,960.94
2018-04-09T06:13:33.030Z,960.98
2018-04-09T06:14:33.021Z,960.98
2018-04-09T06:15:33.012Z,961.01
2018-04-09T06:16:33.002Z,960.97
2018-04-09T06:17:32.993Z,961.03
2018-04-09T06:18:32.983Z,961.00
2018-04-09T06:19:32.979Z,960.98
2018-04-09T06:20:32.967Z,961.00
2018-04-09T06:21:32.952Z,961.01
2018-04-09T06:22:32.944Z,961.00
2018-04-09T06:23:32.934Z,961.01
2018-04-09T06:24:32.927Z,960.98
2018-04-09T06:25:32.925Z,960.97
2018-04-09T06:26:32.906Z,960.91
2018-04-09T06:27:32.898Z,960.93
2018-04-09T06:28:32.897Z,960.90
2018-04-09T06:29:32.878Z,960.89
2018-04-09T06:30:32.867Z,960.87
2018-04-09T06:31:32.858Z,960.86
2018-04-09T06:32:32.852Z,960.86
2018-04-09T06:33:32.847Z,960.85
2018-04-09T06:34:32.834Z,960.87
2018-04-09T06:35:32.825Z,960.87
2018-04-09T06:36:32.814Z,960.90
2018-04-09T06:37:32.802Z,960.87
2018-04-09T06:38:32.797Z,960.93
2018-04-09T06:39:32.788Z,960.92
2018-04-09T06:40:32.778Z,960.89
2018-04-09T06:41:32.773Z,960.91
2018-04-09T06:42:32.761Z,960.91
2018-04-09T06:43:32.752Z,960.93
2018-04-09T06:44:32.738Z,960.89
2018-04-09T06:45:32.738Z,960.87
2018-04-09T06:46:32.724Z,960.88
2018-04-09T06:47:32.713Z,960.93
2018-04-09T06:48:32.702Z,960.89
2018-04-09T06:49:32.695Z,960.91
2018-04-09T06:50:32.682Z,960.89
2018-04-09T06:51:32.675Z,960.92
2018-04-09T06:52:32.670Z,960.87
2018-04-09T06:53:32.654Z,960.86
2018-04-09T06:54:32.647Z,960.82
2018-04-09T06:55:32.636Z,960.82
2018-04-09T06:56:32.627Z,960.79
2018-04-09T06:57:32.621Z,960.78
2018-04-09T06:58:32.608Z,960.78
2018-04-09T06:59:32.599Z,960.79
2018-04-09T07:00:32.592Z,960.81
2018-04-09T07:01:32.580Z,960.81
2018-04-09T07:02:32.578Z,960.79
2018-04-09T07:03:32.562Z,960.79
2018-04-09T07:04:32.554Z,960.83
2018-04-09T07:05:32.543Z,960.80
2018-04-09T07:06:32.536Z,960.82
2018-04-09T07:07:32.525Z,960.82
2018-04-09T07:08:32.518Z,960.84
2018-04-09T07:09:32.517Z,960.84
2018-04-09T07:10:32.498Z,960.84
2018-04-09T07:11:32.488Z,960.85
2018-04-09T07:12:32.491Z,960.86
2018-04-09T07:13:32.471Z,960.78
2018-04-09T07:14:32.460Z,960.79
2018-04-09T07:15:32.460Z,960.80
2018-04-09T07:16:32.444Z,960.78
2018-04-09T07:17:32.438Z,960.80
2018-04-09T07:18:32.423Z,960.78
2018-04-09T07:19:32.421Z,960.83
2018-04-09T07:20:32.410Z,960.77
2018-04-09T07:21:32.396Z,960.86
2018-04-09T07:22:32.398Z,960.89
2018-04-09T07:23:32.391Z,960.88
2018-04-09T07:24:32.378Z,960.90
2018-04-09T07:25:32.367Z,960.87
2018-04-09T07:26:32.353Z,960.88
2018-04-09T07:27:32.345Z,960.87
2018-04-09T07:28:32.337Z,960.88
2018-04-09T07:29:32.329Z,960.81
2018-04-09T07:30:32.317Z,960.78
2018-04-09T07:31:32.308Z,960.79
2018-04-09T07:32:32.303Z,960.79
2018-04-09T07:33:32.298Z,960.76
2018-04-09T07:34:32.291Z,960.77
2018-04-09T07:35:32.284Z,960.78
2018-04-09T07:36:32.268Z,960.76
2018-04-09T07:37:32.293Z,960.74
2018-04-09T07:38:32.265Z,960.76
2018-04-09T07:39:32.242Z,960.76
2018-04-09T07:40:32.241Z,960.83
2018-04-09T07:41:32.226Z,960.91
2018-04-09T07:42:32.214Z,960.90
2018-04-09T07:43:32.209Z,960.90
2018-04-09T07:44:32.198Z,960.88
2018-04-09T07:45:32.189Z,960.85
2018-04-09T07:46:32.183Z,960.87
2018-04-09T07:47:32.213Z,960.85
2018-04-09T07:48:32.164Z,960.86
2018-04-09T07:49:32.157Z,960.82
2018-04-09T07:50:32.155Z,960.83
2018-04-09T07:51:32.148Z,960.77
2018-04-09T07:52:32.134Z,960.75
2018-04-09T07:53:32.129Z,960.77
2018-04-09T07:54:32.120Z,960.79
2018-04-09T07:55:32.106Z,960.81
2018-04-09T07:56:32.097Z,960.83
2018-04-09T07:57:32.095Z,960.85
2018-04-09T07:58:32.087Z,960.86
2018-04-09T07:59:32.080Z,960.86
2018-04-09T08:00:32.069Z,960.88
2018-04-09T08:01:32.060Z,960.86
2018-04-09T08:02:32.057Z,960.85
2018-04-09T08:03:32.039Z,960.83
2018-04-09T08:04:32.031Z,960.81
2018-04-09T08:05:32.024Z,960.81
2018-04-09T08:06:32.015Z,960.78
2018-04-09T08:07:32.015Z,960.79
2018-04-09T08:08:32.004Z,960.82
2018-04-09T08:09:31.997Z,960.80
2018-04-09T08:10:31.982Z,960.81
2018-04-09T08:11:31.976Z,960.85
2018-04-09T08:12:31.975Z,960.85
2018-04-09T08:13:31.960Z,960.88
2018-04-09T08:14:31.951Z,960.81
2018-04-09T08:15:31.945Z,960.84
2018-04-09T08:16:31.939Z,960.82
2018-04-09T08:17:31.933Z,960.79
2018-04-09T08:18:31.925Z,960.85
2018-04-09T08:19:31.914Z,960.87
2018-04-09T08:20:31.905Z,960.88
2018-04-09T08:21:31.898Z,960.87
2018-04-09T08:22:31.888Z,960.86
2018-04-09T08:23:31.882Z,960.82
2018-04-09T08:24:31.876Z,960.82
2018-04-09T08:25:31.867Z,960.83
2018-04-09T08:26:31.859Z,960.82
2018-04-09T08:27:31.850Z,960.80
2018-04-09T08:28:31.843Z,960.80
2018-04-09T08:29:31.842Z,960.81
2018-04-09T08:30:31.833Z,960.83
2018-04-09T08:31:31.821Z,960.85
2018-04-09T08:32:31.814Z,960.81
2018-04-09T08:33:31.811Z,960.82
2018-04-09T08:34:31.798Z,960.84
2018-04-09T08:35:31.791Z,960.86
2018-04-09T08:36:31.786Z,960.98
2018-04-09T08:37:31.782Z,961.01
2018-04-09T08:38:31.769Z,960.99
2018-04-09T08:39:31.763Z,961.01
2018-04-09T08:40:31.762Z,961.05
2018-04-09T08:41:31.749Z,961.02
2018-04-09T08:42:31.741Z,961.04
2018-04-09T08:43:31.734Z,961.02
2018-04-09T08:44:31.727Z,960.99
2018-04-09T08:45:31.720Z,960.99
2018-04-09T08:46:31.712Z,960.97
2018-04-09T08:47:31.707Z,960.98
2018-04-09T08:48:31.700Z,960.97
2018-04-09T08:49:31.691Z,961.00
2018-04-09T08:50:31.685Z,961.00
2018-04-09T08:51:31.679Z,961.03
2018-04-09T08:52:31.675Z,961.04
2018-04-09T08:53:31.662Z,961.04
2018-04-09T08:54:31.655Z,961.03
2018-04-09T08:55:31.657Z,961.02
2018-04-09T08:56:31.653Z,961.00
2018-04-09T08:57:31.634Z,960.99
2018-04-09T08:58:31.632Z,960.95
2018-04-09T08:59:31.619Z,960.95
2018-04-09T09:00:31.621Z,960.95
2018-04-09T09:01:31.613Z,960.97
2018-04-09T09:02:31.600Z,960.98
2018-04-09T09:03:31.592Z,960.97
2018-04-09T09:04:31.586Z,960.98
2018-04-09T09:05:31.579Z,960.99
2018-04-09T09:06:31.569Z,961.00
2018-04-09T09:07:31.565Z,961.00
2018-04-09T09:08:31.588Z,960.97
2018-04-09T09:09:31.552Z,960.96
2018-04-09T09:10:31.544Z,960.95
2018-04-09T09:11:31.536Z,960.99
2018-04-09T09:12:31.531Z,960.97
2018-04-09T09:13:31.525Z,960.99
2018-04-09T09:14:31.517Z,960.96
2018-04-09T09:15:31.520Z,960.94
2018-04-09T09:16:31.505Z,960.96
2018-04-09T09:17:31.498Z,960.98
2018-04-09T09:18:31.497Z,960.94
2018-04-09T09:19:31.485Z,960.98
2018-04-09T09:20:31.481Z,960.89
2018-04-09T09:21:31.473Z,960.90
2018-04-09T09:22:31.466Z,960.89
2018-04-09T09:23:31.462Z,960.89
2018-04-09T09:24:31.459Z,960.87
2018-04-09T09:25:31.449Z,960.89
2018-04-09T09:26:31.441Z,960.87
2018-04-09T09:27:31.443Z,960.88
2018-04-09T09:28:31.434Z,960.87
2018-04-09T09:29:31.472Z,960.83
2018-04-09T09:30:31.417Z,960.83
2018-04-09T09:31:31.419Z,960.85
2018-04-09T09:32:31.406Z,960.86
2018-04-09T09:33:31.398Z,960.82
2018-04-09T09:34:31.397Z,960.81
2018-04-09T09:35:31.387Z,960.83
2018-04-09T09:36:31.388Z,960.85
2018-04-09T09:37:31.423Z,960.85
2018-04-09T09:38:31.372Z,960.85
2018-04-09T09:39:31.363Z,960.87
2018-04-09T09:40:31.358Z,960.86
2018-04-09T09:41:31.353Z,960.89
2018-04-09T09:42:31.347Z,960.91
2018-04-09T09:43:31.339Z,960.91
2018-04-09T09:44:31.345Z,960.90
2018-04-09T09:45:31.328Z,960.88
2018-04-09T09:46:31.327Z,960.92
2018-04-09T09:47:31.325Z,960.93
2018-04-09T09:48:31.311Z,960.94
2018-04-09T09:49:31.307Z,960.93
2018-04-09T09:50:31.300Z,960.87
2018-04-09T09:51:31.294Z,960.87
2018-04-09T09:52:31.289Z,960.82
2018-04-09T09:53:31.281Z,960.79
2018-04-09T09:54:31.286Z,960.78
2018-04-09T09:55:31.271Z,960.79
2018-04-09T09:56:31.265Z,960.85
2018-04-09T09:57:31.258Z,960.84
2018-04-09T09:58:31.257Z,960.82
2018-04-09T09:59:31.247Z,960.79
2018-04-09T10:00:31.244Z,960.82
2018-04-09T10:01:31.235Z,960.85
2018-04-09T10:02:31.226Z,960.80
2018-04-09T10:03:31.226Z,960.81
2018-04-09T10:04:31.216Z,960.83
2018-04-09T10:05:31.210Z,960.75
2018-04-09T10:06:31.203Z,960.80
2018-04-09T10:07:31.196Z,960.78
2018-04-09T10:08:31.192Z,960.76
2018-04-09T10:09:31.185Z,960.76
2018-04-09T10:10:31.185Z,960.75
2018-04-09T10:11:31.181Z,960.78
2018-04-09T10:12:31.169Z,960.80
2018-04-09T10:13:31.158Z,960.82
2018-04-09T10:14:31.167Z,960.82
2018-04-09T10:15:31.149Z,960.84
2018-04-09T10:16:31.145Z,960.82
2018-04-09T10:17:31.142Z,960.84
2018-04-09T10:18:31.131Z,960.85
2018-04-09T10:19:31.127Z,960.89
2018-04-09T10:20:31.122Z,960.85
2018-04-09T10:21:31.114Z,960.83
2018-04-09T10:22:31.115Z,960.78
2018-04-09T10:23:31.111Z,960.73
2018-04-09T10:24:31.096Z,960.73
2018-04-09T10:25:31.100Z,960.69
2018-04-09T10:26:31.086Z,960.77
2018-04-09T10:27:31.087Z,960.70
2018-04-09T10:28:31.075Z,960.70
2018-04-09T10:29:31.068Z,960.72
2018-04-09T10:30:31.067Z,960.68
2018-04-09T10:31:31.059Z,960.68
2018-04-09T10:32:31.054Z,960.70
2018-04-09T10:33:31.048Z,960.68
2018-04-09T10:34:31.046Z,960.64
2018-04-09T10:35:31.040Z,960.69
2018-04-09T10:36:31.033Z,960.67
2018-04-09T10:37:31.026Z,960.72
2018-04-09T10:38:31.022Z,960.77
2018-04-09T10:39:31.015Z,960.77
2018-04-09T10:40:31.011Z,960.76
2018-04-09T10:41:31.008Z,960.79
2018-04-09T10:42:31.035Z,960.80
2018-04-09T10:43:31.001Z,960.77
2018-04-09T10:44:30.991Z,960.80
2018-04-09T10:45:30.985Z,960.76
2018-04-09T10:46:30.978Z,960.78
2018-04-09T10:47:30.981Z,960.78
2018-04-09T10:48:30.970Z,960.74
2018-04-09T10:49:30.964Z,960.75
2018-04-09T10:50:30.959Z,960.73
2018-04-09T10:51:30.951Z,960.75
2018-04-09T10:52:30.953Z,960.76
2018-04-09T10:53:30.942Z,960.79
2018-04-09T10:54:30.937Z,960.75
2018-04-09T10:55:30.931Z,960.74
2018-04-09T10:56:30.928Z,960.74
2018-04-09T10:57:30.921Z,960.73
2018-04-09T10:58:30.918Z,960.71
2018-04-09T10:59:30.920Z,960.74
2018-04-09T11:00:30.913Z,960.70
2018-04-09T11:01:30.901Z,960.73
2018-04-09T11:02:30.897Z,960.72
2018-04-09T11:03:30.891Z,960.71
2018-04-09T11:04:30.893Z,960.71
2018-04-09T11:05:30.881Z,960.68
2018-04-09T11:06:30.878Z,960.74
2018-04-09T11:07:30.874Z,960.71
2018-04-09T11:08:30.869Z,960.69
2018-04-09T11:09:30.865Z,960.70
2018-04-09T11:10:30.865Z,960.68
2018-04-09T11:11:30.853Z,960.68
2018-04-09T11:12:30.858Z,960.68
2018-04-09T11:13:30.842Z,960.66
2018-04-09T11:14:30.838Z,960.67
2018-04-09T11:15:30.839Z,960.68
2018-04-09T11:16:30.829Z,960.66
2018-04-09T11:17:30.823Z,960.64
2018-04-09T11:18:30.822Z,960.65
2018-04-09T11:19:30.815Z,960.64
2018-04-09T11:20:30.817Z,960.66
2018-04-09T11:21:30.815Z,960.68
2018-04-09T11:22:30.808Z,960.67
2018-04-09T11:23:30.796Z,960.66
2018-04-09T11:24:30.793Z,960.64
2018-04-09T11:25:30.786Z,960.66
2018-04-09T11:26:30.787Z,960.67
2018-04-09T11:27:30.785Z,960.62
2018-04-09T11:28:30.785Z,960.59
2018-04-09T11:29:30.769Z,960.59
2018-04-09T11:30:30.763Z,960.61
2018-04-09T11:31:30.763Z,960.56
2018-04-09T11:32:30.756Z,960.55
2018-04-09T11:33:30.760Z,960.54
2018-04-09T11:34:30.747Z,960.50
2018-04-09T11:35:30.742Z,960.50
2018-04-09T11:36:30.758Z,960.51
2018-04-09T11:37:30.737Z,960.46
2018-04-09T11:38:30.733Z,960.46
2018-04-09T11:39:30.730Z,960.45
2018-04-09T11:40:30.725Z,960.47
2018-04-09T11:41:30.725Z,960.42
2018-04-09T11:42:30.722Z,960.41
2018-04-09T11:43:30.713Z,960.40
2018-04-09T11:44:30.707Z,960.42
2018-04-09T11:45:30.704Z,960.35
2018-04-09T11:46:30.697Z,960.35
2018-04-09T11:47:30.693Z,960.39
2018-04-09T11:48:30.690Z,960.37
2018-04-09T11:49:30.683Z,960.37
2018-04-09T11:50:30.682Z,960.31
2018-04-09T11:51:30.676Z,960.31
2018-04-09T11:52:30.672Z,960.31
2018-04-09T11:53:30.666Z,960.25
2018-04-09T11:54:30.670Z,960.22
2018-04-09T11:55:30.661Z,960.32
2018-04-09T11:56:30.657Z,960.26
2018-04-09T11:57:30.652Z,960.21
2018-04-09T11:58:30.646Z,960.16
2018-04-09T11:59:30.660Z,960.19
2018-04-09T12:00:30.640Z,960.20
2018-04-09T12:01:30.634Z,960.17
2018-04-09T12:02:30.630Z,960.18
2018-04-09T12:03:30.626Z,960.15
2018-04-09T12:04:30.626Z,960.15
2018-04-09T12:05:30.625Z,960.17
2018-04-09T12:06:30.612Z,960.09
2018-04-09T12:07:30.616Z,960.09
2018-04-09T12:08:30.611Z,960.13
2018-04-09T12:09:30.604Z,960.17
2018-04-09T12:10:30.599Z,960.19
2018-04-09T12:11:30.601Z,960.15
2018-04-09T12:12:30.594Z,960.16
2018-04-09T12:13:30.590Z,960.17
2018-04-09T12:14:30.587Z,960.17
2018-04-09T12:15:30.581Z,960.11
2018-04-09T12:16:30.576Z,960.12
2018-04-09T12:17:30.577Z,960.12
2018-04-09T12:18:30.575Z,960.10
2018-04-09T12:19:30.568Z,960.08
2018-04-09T12:20:30.558Z,960.11
2018-04-09T12:21:30.553Z,960.10
2018-04-09T12:22:30.551Z,960.12
2018-04-09T12:23:30.545Z,960.09
2018-04-09T12:24:30.549Z,960.09
2018-04-09T12:25:30.542Z,960.09
2018-04-09T12:26:30.534Z,960.11
2018-04-09T12:27:30.529Z,960.07
2018-04-09T12:28:30.525Z,960.09